sensor_id;sensor_type;location;lat;lon;timestamp;P1;durP1;ratioP1;P2;durP2;ratioP2
65665;SDS011;52365;47.464;18.976;2023-05-07T00:00:00;7.78;;;6.45;;
65665;SDS011;52365;47.464;18.976;2023-05-07T00:00:21;7.32;;;6.45;;
65665;SDS011;52365;47.464;18.976;2023-05-07T00:00:42;7.78;;;6.45;;
65665;SDS011;52365;47.464;18.976;2023-05-07T00:01:03;8.90;;;6.97;;
65665;SDS011;52365;47.464;18.976;2023-05-07T00:01:26;9.60;;;6.95;;
65665;SDS011;52365;47.464;18.976;2023-05-07T00:01:47;8.85;;;7.12;;
65665;SDS011;52365;47.464;18.976;2023-05-07T00:02:08;8.88;;;6.93;;
65665;SDS011;52365;47.464;18.976;2023-05-07T00:02:29;8.50;;;6.62;;
65665;SDS011;52365;47.464;18.976;2023-05-07T00:02:50;8.45;;;6.93;;
65665;SDS011;52365;47.464;18.976;2023-05-07T00:03:11;9.40;;;7.22;;
65665;SDS011;52365;47.464;18.976;2023-05-07T00:03:34;8.25;;;6.70;;
65665;SDS011;52365;47.464;18.976;2023-05-07T00:03:55;9.13;;;6.85;;
65665;SDS011;52365;47.464;18.976;2023-05-07T00:04:16;8.07;;;6.53;;
65665;SDS011;52365;47.464;18.976;2023-05-07T00:04:37;7.60;;;6.15;;
65665;SDS011;52365;47.464;18.976;2023-05-07T00:04:59;7.28;;;6.22;;
65665;SDS011;52365;47.464;18.976;2023-05-07T00:05:20;7.28;;;5.97;;
65665;SDS011;52365;47.464;18.976;2023-05-07T00:05:41;7.53;;;6.05;;
65665;SDS011;52365;47.464;18.976;2023-05-07T00:06:03;7.03;;;5.87;;
65665;SDS011;52365;47.464;18.976;2023-05-07T00:06:24;6.93;;;5.60;;
65665;SDS011;52365;47.464;18.976;2023-05-07T00:06:46;7.45;;;6.15;;
65665;SDS011;52365;47.464;18.976;2023-05-07T00:07:07;7.60;;;6.40;;
65665;SDS011;52365;47.464;18.976;2023-05-07T00:07:28;9.40;;;6.00;;
65665;SDS011;52365;47.464;18.976;2023-05-07T00:07:49;9.30;;;6.00;;
65665;SDS011;52365;47.464;18.976;2023-05-07T00:08:11;8.73;;;6.22;;
65665;SDS011;52365;47.464;18.976;2023-05-07T00:08:32;7.70;;;5.93;;
65665;SDS011;52365;47.464;18.976;2023-05-07T00:08:53;6.78;;;5.87;;
65665;SDS011;52365;47.464;18.976;2023-05-07T00:09:14;8.30;;;6.10;;
65665;SDS011;52365;47.464;18.976;2023-05-07T00:09:35;8.77;;;6.03;;
65665;SDS011;52365;47.464;18.976;2023-05-07T00:09:56;11.12;;;8.73;;
65665;SDS011;52365;47.464;18.976;2023-05-07T00:10:17;13.77;;;11.40;;
65665;SDS011;52365;47.464;18.976;2023-05-07T00:10:39;11.43;;;9.45;;
65665;SDS011;52365;47.464;18.976;2023-05-07T00:11:00;11.50;;;9.50;;
65665;SDS011;52365;47.464;18.976;2023-05-07T00:11:21;11.50;;;9.57;;
65665;SDS011;52365;47.464;18.976;2023-05-07T00:11:42;13.10;;;10.35;;
65665;SDS011;52365;47.464;18.976;2023-05-07T00:12:03;12.90;;;10.20;;
65665;SDS011;52365;47.464;18.976;2023-05-07T00:12:24;11.43;;;9.52;;
65665;SDS011;52365;47.464;18.976;2023-05-07T00:12:46;11.30;;;9.15;;
65665;SDS011;52365;47.464;18.976;2023-05-07T00:13:07;9.25;;;8.13;;
65665;SDS011;52365;47.464;18.976;2023-05-07T00:13:28;9.77;;;7.57;;
65665;SDS011;52365;47.464;18.976;2023-05-07T00:13:51;9.73;;;7.68;;
65665;SDS011;52365;47.464;18.976;2023-05-07T00:14:12;9.32;;;7.47;;
65665;SDS011;52365;47.464;18.976;2023-05-07T00:14:33;8.52;;;6.97;;
65665;SDS011;52365;47.464;18.976;2023-05-07T00:14:54;8.82;;;6.70;;
65665;SDS011;52365;47.464;18.976;2023-05-07T00:15:15;8.30;;;6.78;;
65665;SDS011;52365;47.464;18.976;2023-05-07T00:15:36;8.45;;;6.72;;
65665;SDS011;52365;47.464;18.976;2023-05-07T00:15:57;9.18;;;6.87;;
65665;SDS011;52365;47.464;18.976;2023-05-07T00:16:18;8.88;;;6.87;;
65665;SDS011;52365;47.464;18.976;2023-05-07T00:16:34;7.93;;;7.03;;
65665;SDS011;52365;47.464;18.976;2023-05-07T00:16:55;8.07;;;6.93;;
65665;SDS011;52365;47.464;18.976;2023-05-07T00:17:16;7.62;;;6.40;;
65665;SDS011;52365;47.464;18.976;2023-05-07T00:17:37;7.68;;;6.30;;
65665;SDS011;52365;47.464;18.976;2023-05-07T00:17:58;7.85;;;6.30;;
65665;SDS011;52365;47.464;18.976;2023-05-07T00:18:19;7.45;;;6.15;;
65665;SDS011;52365;47.464;18.976;2023-05-07T00:18:43;7.28;;;6.40;;
65665;SDS011;52365;47.464;18.976;2023-05-07T00:19:04;8.30;;;6.80;;
65665;SDS011;52365;47.464;18.976;2023-05-07T00:19:25;8.73;;;6.53;;
65665;SDS011;52365;47.464;18.976;2023-05-07T00:19:46;7.97;;;6.40;;
65665;SDS011;52365;47.464;18.976;2023-05-07T00:20:07;7.97;;;6.10;;
65665;SDS011;52365;47.464;18.976;2023-05-07T00:20:28;7.37;;;6.50;;
65665;SDS011;52365;47.464;18.976;2023-05-07T00:20:49;7.68;;;6.32;;
65665;SDS011;52365;47.464;18.976;2023-05-07T00:21:10;7.45;;;6.20;;
65665;SDS011;52365;47.464;18.976;2023-05-07T00:21:32;7.00;;;5.80;;
65665;SDS011;52365;47.464;18.976;2023-05-07T00:21:53;7.68;;;5.97;;
65665;SDS011;52365;47.464;18.976;2023-05-07T00:22:14;8.27;;;5.97;;
65665;SDS011;52365;47.464;18.976;2023-05-07T00:22:36;7.97;;;6.12;;
65665;SDS011;52365;47.464;18.976;2023-05-07T00:22:57;9.63;;;6.87;;
65665;SDS011;52365;47.464;18.976;2023-05-07T00:23:18;8.75;;;6.72;;
65665;SDS011;52365;47.464;18.976;2023-05-07T00:23:39;7.80;;;6.47;;
65665;SDS011;52365;47.464;18.976;2023-05-07T00:24:00;8.52;;;6.75;;
65665;SDS011;52365;47.464;18.976;2023-05-07T00:24:21;8.35;;;6.80;;
65665;SDS011;52365;47.464;18.976;2023-05-07T00:24:42;8.23;;;6.20;;
65665;SDS011;52365;47.464;18.976;2023-05-07T00:25:03;7.90;;;6.20;;
65665;SDS011;52365;47.464;18.976;2023-05-07T00:25:25;8.55;;;6.57;;
65665;SDS011;52365;47.464;18.976;2023-05-07T00:25:46;8.98;;;6.87;;
65665;SDS011;52365;47.464;18.976;2023-05-07T00:26:07;7.65;;;6.62;;
65665;SDS011;52365;47.464;18.976;2023-05-07T00:26:28;7.78;;;6.15;;
65665;SDS011;52365;47.464;18.976;2023-05-07T00:26:49;7.70;;;6.43;;
65665;SDS011;52365;47.464;18.976;2023-05-07T00:27:10;8.20;;;6.60;;
65665;SDS011;52365;47.464;18.976;2023-05-07T00:27:31;8.00;;;6.32;;
65665;SDS011;52365;47.464;18.976;2023-05-07T00:27:52;8.15;;;6.78;;
65665;SDS011;52365;47.464;18.976;2023-05-07T00:28:13;7.80;;;6.60;;
65665;SDS011;52365;47.464;18.976;2023-05-07T00:28:34;8.52;;;6.43;;
65665;SDS011;52365;47.464;18.976;2023-05-07T00:28:55;8.43;;;6.40;;
65665;SDS011;52365;47.464;18.976;2023-05-07T00:29:16;7.87;;;6.30;;
65665;SDS011;52365;47.464;18.976;2023-05-07T00:29:37;9.65;;;6.45;;
65665;SDS011;52365;47.464;18.976;2023-05-07T00:29:58;8.85;;;6.40;;
65665;SDS011;52365;47.464;18.976;2023-05-07T00:30:19;8.77;;;6.60;;
65665;SDS011;52365;47.464;18.976;2023-05-07T00:30:40;8.55;;;6.40;;
65665;SDS011;52365;47.464;18.976;2023-05-07T00:31:01;7.28;;;6.12;;
65665;SDS011;52365;47.464;18.976;2023-05-07T00:31:22;6.43;;;5.62;;
65665;SDS011;52365;47.464;18.976;2023-05-07T00:31:43;6.75;;;5.65;;
65665;SDS011;52365;47.464;18.976;2023-05-07T00:32:04;7.03;;;6.28;;
65665;SDS011;52365;47.464;18.976;2023-05-07T00:32:25;7.57;;;5.93;;
65665;SDS011;52365;47.464;18.976;2023-05-07T00:32:46;7.32;;;5.85;;
65665;SDS011;52365;47.464;18.976;2023-05-07T00:33:09;8.15;;;6.65;;
65665;SDS011;52365;47.464;18.976;2023-05-07T00:33:30;9.10;;;6.70;;
65665;SDS011;52365;47.464;18.976;2023-05-07T00:33:51;10.35;;;7.07;;
65665;SDS011;52365;47.464;18.976;2023-05-07T00:34:12;8.95;;;6.95;;
65665;SDS011;52365;47.464;18.976;2023-05-07T00:34:33;8.68;;;7.10;;
65665;SDS011;52365;47.464;18.976;2023-05-07T00:34:54;8.05;;;6.97;;
65665;SDS011;52365;47.464;18.976;2023-05-07T00:35:16;8.23;;;7.22;;
65665;SDS011;52365;47.464;18.976;2023-05-07T00:35:37;10.13;;;7.32;;
65665;SDS011;52365;47.464;18.976;2023-05-07T00:35:58;9.20;;;7.47;;
65665;SDS011;52365;47.464;18.976;2023-05-07T00:36:19;8.27;;;7.12;;
65665;SDS011;52365;47.464;18.976;2023-05-07T00:36:40;9.05;;;6.93;;
65665;SDS011;52365;47.464;18.976;2023-05-07T00:37:01;9.05;;;7.30;;
65665;SDS011;52365;47.464;18.976;2023-05-07T00:37:22;9.00;;;7.28;;
65665;SDS011;52365;47.464;18.976;2023-05-07T00:37:43;8.43;;;7.35;;
65665;SDS011;52365;47.464;18.976;2023-05-07T00:38:04;9.02;;;7.25;;
65665;SDS011;52365;47.464;18.976;2023-05-07T00:38:25;8.75;;;7.22;;
65665;SDS011;52365;47.464;18.976;2023-05-07T00:38:46;10.40;;;6.97;;
65665;SDS011;52365;47.464;18.976;2023-05-07T00:39:07;8.57;;;6.72;;
65665;SDS011;52365;47.464;18.976;2023-05-07T00:39:28;8.90;;;7.10;;
65665;SDS011;52365;47.464;18.976;2023-05-07T00:39:49;8.48;;;6.90;;
65665;SDS011;52365;47.464;18.976;2023-05-07T00:40:10;7.80;;;7.00;;
65665;SDS011;52365;47.464;18.976;2023-05-07T00:40:31;7.95;;;6.62;;
65665;SDS011;52365;47.464;18.976;2023-05-07T00:40:53;7.70;;;6.53;;
65665;SDS011;52365;47.464;18.976;2023-05-07T00:41:14;7.97;;;7.00;;
65665;SDS011;52365;47.464;18.976;2023-05-07T00:41:35;8.18;;;6.85;;
65665;SDS011;52365;47.464;18.976;2023-05-07T00:41:56;10.60;;;7.35;;
65665;SDS011;52365;47.464;18.976;2023-05-07T00:42:17;9.75;;;7.40;;
65665;SDS011;52365;47.464;18.976;2023-05-07T00:42:38;8.60;;;7.43;;
65665;SDS011;52365;47.464;18.976;2023-05-07T00:42:59;9.15;;;7.00;;
65665;SDS011;52365;47.464;18.976;2023-05-07T00:43:20;8.77;;;6.85;;
65665;SDS011;52365;47.464;18.976;2023-05-07T00:43:41;8.52;;;7.03;;
65665;SDS011;52365;47.464;18.976;2023-05-07T00:44:02;10.73;;;7.20;;
65665;SDS011;52365;47.464;18.976;2023-05-07T00:44:23;7.87;;;6.85;;
65665;SDS011;52365;47.464;18.976;2023-05-07T00:44:45;9.18;;;7.10;;
65665;SDS011;52365;47.464;18.976;2023-05-07T00:45:07;8.68;;;6.97;;
65665;SDS011;52365;47.464;18.976;2023-05-07T00:45:28;8.02;;;6.97;;
65665;SDS011;52365;47.464;18.976;2023-05-07T00:45:50;8.80;;;7.05;;
65665;SDS011;52365;47.464;18.976;2023-05-07T00:46:11;9.23;;;7.43;;
65665;SDS011;52365;47.464;18.976;2023-05-07T00:46:32;8.93;;;7.07;;
65665;SDS011;52365;47.464;18.976;2023-05-07T00:46:54;8.90;;;7.10;;
65665;SDS011;52365;47.464;18.976;2023-05-07T00:47:15;9.10;;;7.37;;
65665;SDS011;52365;47.464;18.976;2023-05-07T00:47:36;8.95;;;7.20;;
65665;SDS011;52365;47.464;18.976;2023-05-07T00:47:59;8.40;;;6.85;;
65665;SDS011;52365;47.464;18.976;2023-05-07T00:48:21;10.95;;;7.25;;
65665;SDS011;52365;47.464;18.976;2023-05-07T00:48:42;10.38;;;7.15;;
65665;SDS011;52365;47.464;18.976;2023-05-07T00:49:03;8.77;;;6.80;;
65665;SDS011;52365;47.464;18.976;2023-05-07T00:49:26;8.43;;;6.75;;
65665;SDS011;52365;47.464;18.976;2023-05-07T00:49:58;9.03;;;7.10;;
65665;SDS011;52365;47.464;18.976;2023-05-07T00:50:20;11.23;;;6.97;;
65665;SDS011;52365;47.464;18.976;2023-05-07T00:50:41;8.57;;;6.87;;
65665;SDS011;52365;47.464;18.976;2023-05-07T00:51:02;8.80;;;7.03;;
65665;SDS011;52365;47.464;18.976;2023-05-07T00:51:24;8.65;;;6.72;;
65665;SDS011;52365;47.464;18.976;2023-05-07T00:51:47;9.48;;;7.30;;
65665;SDS011;52365;47.464;18.976;2023-05-07T00:52:09;10.30;;;7.30;;
65665;SDS011;52365;47.464;18.976;2023-05-07T00:52:33;9.95;;;7.15;;
65665;SDS011;52365;47.464;18.976;2023-05-07T00:52:55;8.20;;;6.95;;
65665;SDS011;52365;47.464;18.976;2023-05-07T00:53:16;8.50;;;6.95;;
65665;SDS011;52365;47.464;18.976;2023-05-07T00:53:37;7.85;;;6.55;;
65665;SDS011;52365;47.464;18.976;2023-05-07T00:53:59;9.52;;;6.85;;
65665;SDS011;52365;47.464;18.976;2023-05-07T00:54:22;9.20;;;6.90;;
65665;SDS011;52365;47.464;18.976;2023-05-07T00:54:43;8.95;;;6.80;;
65665;SDS011;52365;47.464;18.976;2023-05-07T00:55:05;8.98;;;7.10;;
65665;SDS011;52365;47.464;18.976;2023-05-07T00:55:27;8.88;;;7.10;;
65665;SDS011;52365;47.464;18.976;2023-05-07T00:55:49;9.52;;;7.12;;
65665;SDS011;52365;47.464;18.976;2023-05-07T00:56:10;9.32;;;7.00;;
65665;SDS011;52365;47.464;18.976;2023-05-07T00:56:32;9.20;;;7.32;;
65665;SDS011;52365;47.464;18.976;2023-05-07T00:56:53;8.95;;;7.15;;
65665;SDS011;52365;47.464;18.976;2023-05-07T00:57:15;8.63;;;7.25;;
65665;SDS011;52365;47.464;18.976;2023-05-07T00:57:36;8.80;;;7.53;;
65665;SDS011;52365;47.464;18.976;2023-05-07T00:57:58;8.60;;;7.05;;
65665;SDS011;52365;47.464;18.976;2023-05-07T00:58:19;9.18;;;7.25;;
65665;SDS011;52365;47.464;18.976;2023-05-07T00:58:41;8.17;;;6.83;;
65665;SDS011;52365;47.464;18.976;2023-05-07T00:59:03;8.88;;;7.03;;
65665;SDS011;52365;47.464;18.976;2023-05-07T00:59:24;8.20;;;7.00;;
65665;SDS011;52365;47.464;18.976;2023-05-07T00:59:45;7.72;;;6.53;;
65665;SDS011;52365;47.464;18.976;2023-05-07T01:00:07;8.20;;;6.85;;
65665;SDS011;52365;47.464;18.976;2023-05-07T01:00:29;9.70;;;8.30;;
65665;SDS011;52365;47.464;18.976;2023-05-07T01:00:51;7.70;;;6.70;;
65665;SDS011;52365;47.464;18.976;2023-05-07T01:01:12;7.95;;;6.62;;
65665;SDS011;52365;47.464;18.976;2023-05-07T01:01:33;19.00;;;14.10;;
65665;SDS011;52365;47.464;18.976;2023-05-07T01:01:54;30.75;;;23.30;;
65665;SDS011;52365;47.464;18.976;2023-05-07T01:02:16;12.13;;;9.02;;
65665;SDS011;52365;47.464;18.976;2023-05-07T01:02:40;12.00;;;9.00;;
65665;SDS011;52365;47.464;18.976;2023-05-07T01:03:02;10.20;;;8.50;;
65665;SDS011;52365;47.464;18.976;2023-05-07T01:03:23;10.50;;;8.18;;
65665;SDS011;52365;47.464;18.976;2023-05-07T01:03:44;11.32;;;8.80;;
65665;SDS011;52365;47.464;18.976;2023-05-07T01:04:05;12.20;;;9.52;;
65665;SDS011;52365;47.464;18.976;2023-05-07T01:04:26;10.38;;;8.65;;
65665;SDS011;52365;47.464;18.976;2023-05-07T01:04:47;10.10;;;8.50;;
65665;SDS011;52365;47.464;18.976;2023-05-07T01:05:09;10.07;;;8.77;;
65665;SDS011;52365;47.464;18.976;2023-05-07T01:05:34;9.93;;;8.38;;
65665;SDS011;52365;47.464;18.976;2023-05-07T01:05:56;10.65;;;8.52;;
65665;SDS011;52365;47.464;18.976;2023-05-07T01:06:20;9.52;;;7.85;;
65665;SDS011;52365;47.464;18.976;2023-05-07T01:06:42;11.05;;;8.10;;
65665;SDS011;52365;47.464;18.976;2023-05-07T01:07:05;10.38;;;7.80;;
65665;SDS011;52365;47.464;18.976;2023-05-07T01:07:26;9.65;;;7.70;;
65665;SDS011;52365;47.464;18.976;2023-05-07T01:07:48;10.77;;;7.45;;
65665;SDS011;52365;47.464;18.976;2023-05-07T01:08:10;8.95;;;7.45;;
65665;SDS011;52365;47.464;18.976;2023-05-07T01:08:31;8.70;;;7.45;;
65665;SDS011;52365;47.464;18.976;2023-05-07T01:08:53;10.23;;;7.72;;
65665;SDS011;52365;47.464;18.976;2023-05-07T01:09:12;10.88;;;7.70;;
65665;SDS011;52365;47.464;18.976;2023-05-07T01:09:33;9.02;;;7.53;;
65665;SDS011;52365;47.464;18.976;2023-05-07T01:09:56;9.98;;;7.60;;
65665;SDS011;52365;47.464;18.976;2023-05-07T01:10:18;10.25;;;7.70;;
65665;SDS011;52365;47.464;18.976;2023-05-07T01:10:39;10.13;;;7.57;;
65665;SDS011;52365;47.464;18.976;2023-05-07T01:11:03;9.88;;;8.00;;
65665;SDS011;52365;47.464;18.976;2023-05-07T01:11:24;10.52;;;7.50;;
65665;SDS011;52365;47.464;18.976;2023-05-07T01:11:46;9.18;;;7.85;;
65665;SDS011;52365;47.464;18.976;2023-05-07T01:12:08;9.70;;;7.45;;
65665;SDS011;52365;47.464;18.976;2023-05-07T01:12:29;11.05;;;7.50;;
65665;SDS011;52365;47.464;18.976;2023-05-07T01:12:51;9.18;;;7.22;;
65665;SDS011;52365;47.464;18.976;2023-05-07T01:13:14;8.85;;;7.43;;
65665;SDS011;52365;47.464;18.976;2023-05-07T01:13:36;9.70;;;7.50;;
65665;SDS011;52365;47.464;18.976;2023-05-07T01:13:58;11.23;;;7.53;;
65665;SDS011;52365;47.464;18.976;2023-05-07T01:14:20;10.75;;;7.65;;
65665;SDS011;52365;47.464;18.976;2023-05-07T01:14:41;10.02;;;7.65;;
65665;SDS011;52365;47.464;18.976;2023-05-07T01:15:03;10.48;;;7.90;;
65665;SDS011;52365;47.464;18.976;2023-05-07T01:15:26;9.27;;;7.72;;
65665;SDS011;52365;47.464;18.976;2023-05-07T01:15:47;10.23;;;7.60;;
65665;SDS011;52365;47.464;18.976;2023-05-07T01:16:08;9.23;;;7.60;;
65665;SDS011;52365;47.464;18.976;2023-05-07T01:16:30;9.80;;;7.68;;
65665;SDS011;52365;47.464;18.976;2023-05-07T01:16:51;8.85;;;7.00;;
65665;SDS011;52365;47.464;18.976;2023-05-07T01:17:13;9.88;;;7.43;;
65665;SDS011;52365;47.464;18.976;2023-05-07T01:17:35;9.63;;;7.50;;
65665;SDS011;52365;47.464;18.976;2023-05-07T01:17:57;11.20;;;7.65;;
65665;SDS011;52365;47.464;18.976;2023-05-07T01:18:18;9.48;;;7.50;;
65665;SDS011;52365;47.464;18.976;2023-05-07T01:18:34;8.57;;;7.28;;
65665;SDS011;52365;47.464;18.976;2023-05-07T01:18:55;9.98;;;7.70;;
65665;SDS011;52365;47.464;18.976;2023-05-07T01:19:17;9.60;;;7.25;;
65665;SDS011;52365;47.464;18.976;2023-05-07T01:19:39;9.55;;;7.43;;
65665;SDS011;52365;47.464;18.976;2023-05-07T01:20:00;9.38;;;7.43;;
65665;SDS011;52365;47.464;18.976;2023-05-07T01:20:22;8.57;;;7.45;;
65665;SDS011;52365;47.464;18.976;2023-05-07T01:20:43;9.35;;;7.40;;
65665;SDS011;52365;47.464;18.976;2023-05-07T01:21:06;10.82;;;7.50;;
65665;SDS011;52365;47.464;18.976;2023-05-07T01:21:32;10.27;;;7.43;;
65665;SDS011;52365;47.464;18.976;2023-05-07T01:21:56;10.10;;;7.45;;
65665;SDS011;52365;47.464;18.976;2023-05-07T01:22:28;9.60;;;7.35;;
65665;SDS011;52365;47.464;18.976;2023-05-07T01:22:52;9.30;;;7.62;;
65665;SDS011;52365;47.464;18.976;2023-05-07T01:23:13;8.82;;;7.45;;
65665;SDS011;52365;47.464;18.976;2023-05-07T01:23:36;9.52;;;7.40;;
65665;SDS011;52365;47.464;18.976;2023-05-07T01:23:58;10.00;;;7.80;;
65665;SDS011;52365;47.464;18.976;2023-05-07T01:24:19;11.00;;;7.50;;
65665;SDS011;52365;47.464;18.976;2023-05-07T01:24:41;10.38;;;7.80;;
65665;SDS011;52365;47.464;18.976;2023-05-07T01:25:03;8.75;;;7.45;;
65665;SDS011;52365;47.464;18.976;2023-05-07T01:25:25;9.55;;;7.53;;
65665;SDS011;52365;47.464;18.976;2023-05-07T01:25:53;9.73;;;7.62;;
65665;SDS011;52365;47.464;18.976;2023-05-07T01:26:14;10.80;;;7.97;;
65665;SDS011;52365;47.464;18.976;2023-05-07T01:26:35;9.65;;;7.28;;
65665;SDS011;52365;47.464;18.976;2023-05-07T01:26:57;10.02;;;7.82;;
65665;SDS011;52365;47.464;18.976;2023-05-07T01:27:18;9.50;;;8.07;;
65665;SDS011;52365;47.464;18.976;2023-05-07T01:27:39;10.23;;;7.50;;
65665;SDS011;52365;47.464;18.976;2023-05-07T01:28:00;8.43;;;7.35;;
65665;SDS011;52365;47.464;18.976;2023-05-07T01:28:22;10.38;;;7.62;;
65665;SDS011;52365;47.464;18.976;2023-05-07T01:28:43;10.77;;;7.57;;
65665;SDS011;52365;47.464;18.976;2023-05-07T01:29:04;9.98;;;7.57;;
65665;SDS011;52365;47.464;18.976;2023-05-07T01:29:25;11.00;;;7.97;;
65665;SDS011;52365;47.464;18.976;2023-05-07T01:29:46;9.35;;;7.50;;
65665;SDS011;52365;47.464;18.976;2023-05-07T01:30:07;9.18;;;7.68;;
65665;SDS011;52365;47.464;18.976;2023-05-07T01:30:28;9.15;;;7.40;;
65665;SDS011;52365;47.464;18.976;2023-05-07T01:30:52;9.68;;;7.57;;
65665;SDS011;52365;47.464;18.976;2023-05-07T01:31:16;10.90;;;8.05;;
65665;SDS011;52365;47.464;18.976;2023-05-07T01:31:38;9.43;;;7.50;;
65665;SDS011;52365;47.464;18.976;2023-05-07T01:32:01;10.20;;;7.55;;
65665;SDS011;52365;47.464;18.976;2023-05-07T01:32:24;11.77;;;9.23;;
65665;SDS011;52365;47.464;18.976;2023-05-07T01:32:53;15.10;;;11.43;;
65665;SDS011;52365;47.464;18.976;2023-05-07T01:33:20;74.47;;;54.08;;
65665;SDS011;52365;47.464;18.976;2023-05-07T01:33:45;69.62;;;50.00;;
65665;SDS011;52365;47.464;18.976;2023-05-07T01:34:09;34.70;;;25.25;;
65665;SDS011;52365;47.464;18.976;2023-05-07T01:34:32;20.73;;;15.57;;
65665;SDS011;52365;47.464;18.976;2023-05-07T01:34:56;17.37;;;14.35;;
65665;SDS011;52365;47.464;18.976;2023-05-07T01:35:19;12.73;;;10.57;;
65665;SDS011;52365;47.464;18.976;2023-05-07T01:35:43;9.90;;;8.63;;
65665;SDS011;52365;47.464;18.976;2023-05-07T01:36:08;10.18;;;8.35;;
65665;SDS011;52365;47.464;18.976;2023-05-07T01:36:29;10.48;;;7.85;;
65665;SDS011;52365;47.464;18.976;2023-05-07T01:36:52;10.70;;;7.53;;
65665;SDS011;52365;47.464;18.976;2023-05-07T01:37:14;10.15;;;7.50;;
65665;SDS011;52365;47.464;18.976;2023-05-07T01:37:35;9.70;;;7.30;;
65665;SDS011;52365;47.464;18.976;2023-05-07T01:37:57;9.23;;;7.40;;
65665;SDS011;52365;47.464;18.976;2023-05-07T01:38:18;9.48;;;7.43;;
65665;SDS011;52365;47.464;18.976;2023-05-07T01:38:41;9.25;;;7.53;;
65665;SDS011;52365;47.464;18.976;2023-05-07T01:39:03;8.25;;;7.05;;
65665;SDS011;52365;47.464;18.976;2023-05-07T01:39:25;9.27;;;7.25;;
65665;SDS011;52365;47.464;18.976;2023-05-07T01:39:47;8.70;;;7.03;;
65665;SDS011;52365;47.464;18.976;2023-05-07T01:40:09;8.98;;;7.03;;
65665;SDS011;52365;47.464;18.976;2023-05-07T01:40:30;9.30;;;7.07;;
65665;SDS011;52365;47.464;18.976;2023-05-07T01:40:51;9.70;;;7.50;;
65665;SDS011;52365;47.464;18.976;2023-05-07T01:41:13;9.43;;;7.45;;
65665;SDS011;52365;47.464;18.976;2023-05-07T01:41:34;9.45;;;7.35;;
65665;SDS011;52365;47.464;18.976;2023-05-07T01:41:56;11.10;;;7.65;;
65665;SDS011;52365;47.464;18.976;2023-05-07T01:42:17;10.05;;;7.62;;
65665;SDS011;52365;47.464;18.976;2023-05-07T01:42:38;9.18;;;7.40;;
65665;SDS011;52365;47.464;18.976;2023-05-07T01:43:00;8.75;;;7.10;;
65665;SDS011;52365;47.464;18.976;2023-05-07T01:43:25;8.52;;;7.30;;
65665;SDS011;52365;47.464;18.976;2023-05-07T01:43:48;9.20;;;7.50;;
65665;SDS011;52365;47.464;18.976;2023-05-07T01:44:10;8.98;;;7.40;;
65665;SDS011;52365;47.464;18.976;2023-05-07T01:44:33;9.95;;;7.60;;
65665;SDS011;52365;47.464;18.976;2023-05-07T01:44:55;8.98;;;7.28;;
65665;SDS011;52365;47.464;18.976;2023-05-07T01:45:16;8.18;;;6.70;;
65665;SDS011;52365;47.464;18.976;2023-05-07T01:45:37;8.52;;;7.12;;
65665;SDS011;52365;47.464;18.976;2023-05-07T01:45:59;8.38;;;7.05;;
65665;SDS011;52365;47.464;18.976;2023-05-07T01:46:21;8.23;;;7.07;;
65665;SDS011;52365;47.464;18.976;2023-05-07T01:46:42;8.23;;;6.95;;
65665;SDS011;52365;47.464;18.976;2023-05-07T01:47:03;8.35;;;6.95;;
65665;SDS011;52365;47.464;18.976;2023-05-07T01:47:25;8.10;;;7.00;;
65665;SDS011;52365;47.464;18.976;2023-05-07T01:47:46;8.25;;;6.85;;
65665;SDS011;52365;47.464;18.976;2023-05-07T01:48:09;8.43;;;6.82;;
65665;SDS011;52365;47.464;18.976;2023-05-07T01:48:30;8.48;;;6.50;;
65665;SDS011;52365;47.464;18.976;2023-05-07T01:48:53;9.13;;;6.68;;
65665;SDS011;52365;47.464;18.976;2023-05-07T01:49:14;9.27;;;6.62;;
65665;SDS011;52365;47.464;18.976;2023-05-07T01:49:36;9.50;;;6.75;;
65665;SDS011;52365;47.464;18.976;2023-05-07T01:49:58;10.40;;;7.22;;
65665;SDS011;52365;47.464;18.976;2023-05-07T01:50:19;9.52;;;7.10;;
65665;SDS011;52365;47.464;18.976;2023-05-07T01:50:42;9.57;;;7.37;;
65665;SDS011;52365;47.464;18.976;2023-05-07T01:50:59;9.63;;;7.18;;
65665;SDS011;52365;47.464;18.976;2023-05-07T01:51:22;8.68;;;7.05;;
65665;SDS011;52365;47.464;18.976;2023-05-07T01:51:43;8.60;;;6.85;;
65665;SDS011;52365;47.464;18.976;2023-05-07T01:52:04;8.93;;;6.93;;
65665;SDS011;52365;47.464;18.976;2023-05-07T01:52:27;8.32;;;6.72;;
65665;SDS011;52365;47.464;18.976;2023-05-07T01:52:49;8.43;;;6.47;;
65665;SDS011;52365;47.464;18.976;2023-05-07T01:53:11;8.57;;;6.80;;
65665;SDS011;52365;47.464;18.976;2023-05-07T01:53:35;8.23;;;7.00;;
65665;SDS011;52365;47.464;18.976;2023-05-07T01:53:57;8.02;;;6.65;;
65665;SDS011;52365;47.464;18.976;2023-05-07T01:54:18;8.48;;;6.82;;
65665;SDS011;52365;47.464;18.976;2023-05-07T01:54:41;9.50;;;6.97;;
65665;SDS011;52365;47.464;18.976;2023-05-07T01:55:02;9.18;;;6.65;;
65665;SDS011;52365;47.464;18.976;2023-05-07T01:55:23;7.43;;;6.40;;
65665;SDS011;52365;47.464;18.976;2023-05-07T01:55:44;8.25;;;6.53;;
65665;SDS011;52365;47.464;18.976;2023-05-07T01:56:06;8.45;;;6.72;;
65665;SDS011;52365;47.464;18.976;2023-05-07T01:56:27;9.05;;;7.10;;
65665;SDS011;52365;47.464;18.976;2023-05-07T01:56:48;8.65;;;7.20;;
65665;SDS011;52365;47.464;18.976;2023-05-07T01:57:10;10.45;;;7.20;;
65665;SDS011;52365;47.464;18.976;2023-05-07T01:57:31;9.82;;;6.95;;
65665;SDS011;52365;47.464;18.976;2023-05-07T01:57:52;8.77;;;6.75;;
65665;SDS011;52365;47.464;18.976;2023-05-07T01:58:13;7.75;;;6.35;;
65665;SDS011;52365;47.464;18.976;2023-05-07T01:58:34;7.53;;;6.45;;
65665;SDS011;52365;47.464;18.976;2023-05-07T01:58:55;8.52;;;6.85;;
65665;SDS011;52365;47.464;18.976;2023-05-07T01:59:16;9.27;;;6.68;;
65665;SDS011;52365;47.464;18.976;2023-05-07T01:59:37;9.70;;;6.97;;
65665;SDS011;52365;47.464;18.976;2023-05-07T01:59:58;9.27;;;6.87;;
65665;SDS011;52365;47.464;18.976;2023-05-07T02:00:19;8.93;;;6.90;;
65665;SDS011;52365;47.464;18.976;2023-05-07T02:00:41;9.30;;;6.90;;
65665;SDS011;52365;47.464;18.976;2023-05-07T02:01:02;9.15;;;6.90;;
65665;SDS011;52365;47.464;18.976;2023-05-07T02:01:23;9.05;;;6.95;;
65665;SDS011;52365;47.464;18.976;2023-05-07T02:01:44;7.45;;;6.60;;
65665;SDS011;52365;47.464;18.976;2023-05-07T02:02:05;8.02;;;6.65;;
65665;SDS011;52365;47.464;18.976;2023-05-07T02:02:26;7.80;;;6.35;;
65665;SDS011;52365;47.464;18.976;2023-05-07T02:02:47;7.78;;;6.37;;
65665;SDS011;52365;47.464;18.976;2023-05-07T02:03:08;8.77;;;6.28;;
65665;SDS011;52365;47.464;18.976;2023-05-07T02:03:29;7.70;;;6.40;;
65665;SDS011;52365;47.464;18.976;2023-05-07T02:03:51;8.15;;;6.37;;
65665;SDS011;52365;47.464;18.976;2023-05-07T02:04:12;8.07;;;6.15;;
65665;SDS011;52365;47.464;18.976;2023-05-07T02:04:33;7.57;;;6.15;;
65665;SDS011;52365;47.464;18.976;2023-05-07T02:04:54;8.57;;;6.10;;
65665;SDS011;52365;47.464;18.976;2023-05-07T02:05:15;7.20;;;5.95;;
65665;SDS011;52365;47.464;18.976;2023-05-07T02:05:36;6.70;;;6.00;;
65665;SDS011;52365;47.464;18.976;2023-05-07T02:05:57;6.75;;;5.72;;
65665;SDS011;52365;47.464;18.976;2023-05-07T02:06:18;7.68;;;6.25;;
65665;SDS011;52365;47.464;18.976;2023-05-07T02:06:39;7.68;;;6.10;;
65665;SDS011;52365;47.464;18.976;2023-05-07T02:07:01;6.60;;;5.82;;
65665;SDS011;52365;47.464;18.976;2023-05-07T02:07:22;6.93;;;5.75;;
65665;SDS011;52365;47.464;18.976;2023-05-07T02:07:43;7.37;;;5.95;;